Paulsboro, NJ

4:11 AM EDT en Octubre 01, 2014 (GMT -0400)
DV Floral Group | Change Station
CLOSE
Current Station
Estación meteorológica personal
Location: Sewell, NJ
Altura: 49 ft
Estaciones meteorológicas cercanas

Alt 49 ft 39.78 °N, 75.16 °W | Updated 5 seconds ago

Light Rain
Lluvia débil
61.4 ° F
Sensación térmica 61.4 ° F
N
3.0
Viento Variable Viento desde ENE
Gusts 3.0 mph

Hoy
Alta -- | Baja -- ° F
--% Posibilidad de precipitaciones
Ayer
Alta -- | Baja -- ° F
Precip. -- pul
6:57 AM 6:43 PM
Creciente, 45% visible
Presión 29.98 pul
Visibilidad 10.0 Millas
Nubes Nubes dispersas 2600 ft
Muy nublado 11000 ft
Nublado 15000 ft
Punto de rocío 60 ° F
Humedad 94%
Precipitaciones 0.00 pul
Espesor de la nieve No disponible.
UV 0 de una escala de 12
Polen 1.90 de una escala de 12
Ozono Buena
PM2.5 Moderada
Flu Activity No disponible.
METAR KPHL 010754Z 04006KT 10SM -RA SCT026 BKN110 OVC150 18/15 A2997 RMK AO2 RAB45 SLP150 P0000 T01780150 $

More Conditions Fewer Conditions

Presión 29.98 pul
Visibilidad 10.0 Millas
Nubes Nubes dispersas 2600 ft
Muy nublado 11000 ft
Nublado 15000 ft
Punto de rocío 60 ° F
Humedad 94%
Precipitaciones 0.00 pul
Espesor de la nieve No disponible.
UV 0 de una escala de 12
Polen 1.90 de una escala de 12
Ozono Buena
PM2.5 Moderada
Flu Activity No disponible.
METAR KPHL 010754Z 04006KT 10SM -RA SCT026 BKN110 OVC150 18/15 A2997 RMK AO2 RAB45 SLP150 P0000 T01780150 $

More Conditions Fewer Conditions

10-Day Weather Forecast

Almanac

Astronomía

Oct. 01, 2014 Salida Puesta
Hora real 6:57 AM EDT 6:43 PM EDT
Crepúsculo civil 6:30 AM EDT 7:10 PM EDT
Crepúsculo náutico 5:58 AM EDT 7:41 PM EDT
Crepúsculo astronómico 5:27 AM EDT 8:13 PM EDT
Luna 1:55 PM EDT Sin puesta de luna
Horas de luz 12h 40m
Horas de luz
11h 46m
Tomorrow will be 2m 36s shorter.
Creciente, 45% of the Moon is Illuminated
Hoy
Creciente
Oct 1
Cuarto creciente
Oct 8
Luna llena
Oct 15
Cuarto menguante
Oct 23
Nueva

Extremos de hoy

Máximos del estado Bajos del estado

Community

WunderPhotos

Upload Photos

1,757,902 ¡fotos cargadas!

Nearby

Calidad del aire

  Calidad del aire Índice AQ Contaminante
Ayer Moderada
PM2.5
Ayer Buena
OZONE
Real Moderada
PM2.5
Real Buena
OZONE
Miércoles Buena
PM2.5
Jueves Buena
PM2.5
Viernes Buena
PM2.5

Grosos de nieve

Estación Profundido Altura
No tenemos constancia de nieve nueva.

Actividad de terremotos

Ciudad Distance Mag. Tiempo y dato
No hay informes recientes de la actividad sísmica.
Magnitud mínima muestra es 2,5.

Temperaturas de aguas costeras

Lugar Temperatura
Cape May, NJ 73.9 ° F
Reedy Point, DE 71.1 ° F
Delaware City, DE 71.1 ° F
Marcus Hook, PA 71.1 ° F

Estaciones meteorológicas cercanas